Time;durP1;ratioP1;P1;durP2;ratioP2;P2;SDS_P1;SDS_P2;PMS_P1;PMS_P2;Temp;Humidity;BMP_temperature;BMP_pressure;BME280_temperature;BME280_humidity;BME280_pressure;Samples;Min_cycle;Max_cycle;Signal;HPM_P1;HPM_P2
2021/03/09 00:00:05;;;;;;;11.88;2.90;;;;;;;6.19;31.54;101914.25;4977218;28;96768;-79
2021/03/09 00:02:31;;;;;;;6.85;2.80;;;;;;;6.24;31.39;101911.63;4968476;28;97485;-80
2021/03/09 00:04:58;;;;;;;;;;;;;;;6.43;31.15;101909.91;4967638;28;98276;-80
2021/03/09 00:07:24;;;;;;;7.78;4.18;;;;;;;6.16;31.15;101911.66;4963950;28;99318;-79
2021/03/09 00:09:50;;;;;;;5.35;2.50;;;;;;;6.26;31.67;101904.63;4964236;28;97369;-79
2021/03/09 00:12:16;;;;;;;5.97;2.65;;;;;;;6.13;31.37;101909.00;4963223;28;98790;-80
2021/03/09 00:14:42;;;;;;;10.77;3.25;;;;;;;6.33;31.03;101911.66;4970116;28;98876;-80
2021/03/09 00:17:08;;;;;;;10.70;3.20;;;;;;;6.12;31.42;101907.25;4968866;28;99265;-80
2021/03/09 00:19:34;;;;;;;;;;;;;;;6.39;31.14;101906.41;4977045;28;96961;-78
2021/03/09 00:22:01;;;;;;;6.07;2.90;;;;;;;6.30;31.18;101903.78;4977145;28;96893;-80
2021/03/09 00:24:27;;;;;;;9.88;3.13;;;;;;;6.58;30.78;101909.88;4975973;28;97752;-81
2021/03/09 00:26:52;;;;;;;;;;;;;;;6.32;31.23;101904.63;4976287;28;96828;-80
2021/03/09 00:29:18;;;;;;;6.88;2.80;;;;;;;6.31;31.31;101905.50;4993603;28;97136;-79
2021/03/09 00:31:44;;;;;;;;;;;;;;;6.17;31.26;101892.38;4992777;28;97894;-80
2021/03/09 00:34:10;;;;;;;5.32;2.67;;;;;;;6.39;31.00;101899.41;4993713;28;97770;-80
2021/03/09 00:36:36;;;;;;;;;;;;;;;6.15;31.86;101899.41;4994740;28;97684;-79
2021/03/09 00:39:03;;;;;;;6.85;2.60;;;;;;;6.09;31.55;101899.41;4982427;28;96446;-79
2021/03/09 00:41:29;;;;;;;9.18;3.08;;;;;;;6.07;32.01;101897.63;4980105;28;96819;-79
2021/03/09 00:43:54;;;;;;;;;;;;;;;5.99;31.44;101901.13;4973693;28;98036;-79
2021/03/09 00:46:20;;;;;;;5.47;2.55;;;;;;;5.83;31.84;101899.31;4982792;28;98833;-79
2021/03/09 00:48:46;;;;;;;;;;;;;;;6.19;31.67;101903.75;4983480;28;97137;-80
2021/03/09 00:51:13;;;;;;;9.30;2.95;;;;;;;6.00;31.56;101907.25;4980302;28;96750;-81
2021/03/09 00:53:39;;;;;;;8.50;3.17;;;;;;;5.66;32.22;101903.63;4969981;28;98118;-81
2021/03/09 00:56:05;;;;;;;;;;;;;;;5.77;32.23;101903.69;4980528;28;96772;-80
2021/03/09 00:58:32;;;;;;;15.40;3.17;;;;;;;5.72;32.33;101902.75;4975771;28;96861;-80
2021/03/09 01:00:58;;;;;;;8.60;3.45;;;;;;;6.04;31.89;101890.63;4958202;28;97073;-81
2021/03/09 01:03:24;;;;;;;;;;;;;;;5.96;32.15;101895.00;4969951;28;99407;-80
2021/03/09 01:05:50;;;;;;;7.78;3.20;;;;;;;5.92;31.86;101899.34;4976253;28;100219;-81
2021/03/09 01:08:16;;;;;;;;;;;;;;;5.89;32.38;101883.63;4978189;28;96917;-81
2021/03/09 01:10:43;;;;;;;11.25;3.08;;;;;;;5.86;32.01;101883.56;4975388;28;96852;-82
2021/03/09 01:13:11;;;;;;;9.57;3.78;;;;;;;6.03;31.68;101882.78;4974962;28;97942;-79
2021/03/09 01:15:38;;;;;;;8.35;3.47;;;;;;;5.89;31.89;101878.38;4967472;28;99028;-79
2021/03/09 01:18:04;;;;;;;10.43;3.53;;;;;;;5.78;32.50;101879.16;4977678;28;96879;-80
2021/03/09 01:20:30;;;;;;;9.10;3.90;;;;;;;5.65;32.69;101873.03;4974189;28;96805;-79
2021/03/09 01:22:56;;;;;;;;;;;;;;;5.74;32.70;101867.81;4972998;28;99038;-80
2021/03/09 01:25:22;;;;;;;10.30;3.10;;;;;;;5.57;33.04;101875.66;4970638;28;98754;-79
2021/03/09 01:27:48;;;;;;;9.82;3.58;;;;;;;5.65;32.46;101866.91;4990915;28;95933;-80
2021/03/09 01:30:18;;;;;;;8.05;3.25;;;;;;;5.62;32.44;101865.16;4985612;28;96541;-79
2021/03/09 01:32:44;;;;;;;12.70;3.60;;;;;;;5.57;32.66;101866.91;4981630;28;97754;-79
2021/03/09 01:35:12;;;;;;;7.72;3.50;;;;;;;5.61;32.48;101860.78;4981168;28;98713;-80
2021/03/09 01:37:38;;;;;;;11.95;4.45;;;;;;;5.52;32.58;101856.38;4976353;28;96635;-80
2021/03/09 01:40:05;;;;;;;;;;;;;;;5.58;32.49;101852.91;4983286;28;97214;-80
2021/03/09 01:42:31;;;;;;;8.45;3.92;;;;;;;5.57;32.31;101854.69;4984792;28;98942;-80
2021/03/09 01:44:57;;;;;;;;;;;;;;;5.46;32.33;101856.38;4973365;28;98884;-80
2021/03/09 01:47:24;;;;;;;8.20;3.55;;;;;;;5.58;32.45;101845.91;4976871;28;97082;-80
2021/03/09 01:49:50;;;;;;;13.45;3.92;;;;;;;6.09;32.12;101843.41;4963040;28;97027;-80
2021/03/09 01:52:16;;;;;;;;;;;;;;;5.66;32.33;101851.19;4971846;28;97826;-80
2021/03/09 01:54:42;;;;;;;10.60;3.80;;;;;;;5.66;32.84;101839.81;4973070;28;99586;-80
2021/03/09 01:57:09;;;;;;;11.95;3.40;;;;;;;5.51;32.80;101843.31;4971818;28;97074;-80
2021/03/09 01:59:37;;;;;;;8.13;3.70;;;;;;;5.22;33.51;101835.34;4965355;28;98883;-80
2021/03/09 02:02:03;;;;;;;9.82;3.83;;;;;;;5.19;33.29;101830.06;4969862;28;97887;-80
2021/03/09 02:04:30;;;;;;;11.52;3.85;;;;;;;5.04;33.20;101836.16;4961488;28;100501;-80
2021/03/09 02:06:56;;;;;;;16.05;4.72;;;;;;;5.10;32.94;101833.53;4973948;28;96895;-79
2021/03/09 02:09:23;;;;;;;11.15;3.63;;;;;;;5.25;33.11;101837.94;4967924;28;97045;-80
2021/03/09 02:11:59;;;;;;;7.72;3.65;;;;;;;5.34;33.08;101837.13;4973122;28;97849;-80
2021/03/09 02:14:30;;;;;;;14.05;3.78;;;;;;;5.45;33.16;101833.63;4963411;28;98821;-79
2021/03/09 02:17:04;;;;;;;10.65;4.00;;;;;;;5.46;33.12;101824.03;4976401;28;97258;-79
2021/03/09 02:20:05;;;;;;;11.45;4.70;;;;;;;5.56;32.70;101831.06;4988719;28;96434;-80
2021/03/09 02:22:48;;;;;;;13.38;4.32;;;;;;;5.53;33.26;101825.81;4988619;28;97601;-80
2021/03/09 02:25:41;;;;;;;11.90;4.22;;;;;;;5.70;32.83;101821.50;4991786;28;98902;-78
2021/03/09 02:28:21;;;;;;;10.90;4.28;;;;;;;5.49;32.91;101818.81;4991428;28;96072;-79
2021/03/09 02:30:50;;;;;;;13.68;4.55;;;;;;;5.20;33.29;101822.22;4983460;28;96729;-81
2021/03/09 02:33:18;;;;;;;12.40;4.88;;;;;;;5.55;33.00;101821.44;4980576;28;99602;-78
2021/03/09 02:35:49;;;;;;;11.75;3.78;;;;;;;5.33;33.20;101819.63;4964505;28;97596;-79
2021/03/09 02:38:18;;;;;;;13.15;4.13;;;;;;;5.29;33.53;101825.75;4977976;28;96806;-79
2021/03/09 02:40:45;;;;;;;11.15;4.55;;;;;;;5.49;33.07;101819.69;4975956;28;96747;-79
2021/03/09 02:43:17;;;;;;;11.98;4.25;;;;;;;5.36;33.12;101820.53;4975700;28;99056;-79
2021/03/09 02:45:48;;;;;;;10.52;4.25;;;;;;;5.37;33.45;101824.91;4971321;28;99149;-80
2021/03/09 02:48:16;;;;;;;11.55;4.25;;;;;;;5.34;33.73;101813.53;4975730;28;96786;-80
2021/03/09 02:50:46;;;;;;;12.35;4.32;;;;;;;5.12;33.53;101813.44;4977166;28;96980;-79
2021/03/09 02:53:14;;;;;;;11.30;3.80;;;;;;;5.21;33.11;101813.50;4973361;28;97745;-80
2021/03/09 02:55:42;;;;;;;9.40;4.40;;;;;;;5.02;34.13;101816.03;4976756;28;99306;-79
2021/03/09 02:58:10;;;;;;;14.13;3.70;;;;;;;5.21;33.31;101810.88;4973161;28;96839;-79
2021/03/09 03:00:37;;;;;;;11.07;4.30;;;;;;;5.16;33.63;101802.13;4973932;28;97291;-79
2021/03/09 03:03:06;;;;;;;15.10;4.85;;;;;;;5.09;33.91;101804.72;4975358;28;97742;-79
2021/03/09 03:05:33;;;;;;;13.55;4.40;;;;;;;5.21;33.22;101805.63;4974811;28;101667;-79
2021/03/09 03:08:02;;;;;;;12.65;4.70;;;;;;;5.13;33.51;101799.47;4975433;28;97799;-79
2021/03/09 03:10:28;;;;;;;10.88;4.22;;;;;;;5.09;33.88;101797.72;4969786;28;96894;-79
2021/03/09 03:12:54;;;;;;;;;;;;;;;5.15;33.63;101795.13;4971668;28;99014;-79
2021/03/09 03:15:21;;;;;;;14.93;4.35;;;;;;;5.29;33.35;101799.53;4971452;28;99170;-79
2021/03/09 03:17:47;;;;;;;10.20;4.22;;;;;;;5.15;33.45;101794.25;4966325;28;96892;-79
2021/03/09 03:20:16;;;;;;;12.07;4.15;;;;;;;5.16;33.74;101804.75;4966862;28;97259;-78
2021/03/09 03:22:46;;;;;;;12.20;4.18;;;;;;;5.07;33.73;101801.19;4962761;28;99213;-78
2021/03/09 03:25:14;;;;;;;13.63;4.53;;;;;;;4.99;34.01;101801.16;4963094;28;99285;-78
2021/03/09 03:27:41;;;;;;;14.45;4.90;;;;;;;5.27;33.95;101801.28;4969770;28;96798;-79
2021/03/09 03:30:10;;;;;;;13.05;4.00;;;;;;;5.06;33.75;101800.31;4974928;28;96900;-79
2021/03/09 03:32:37;;;;;;;11.15;4.63;;;;;;;5.39;33.83;101798.69;4974760;28;98944;-80
2021/03/09 03:35:05;;;;;;;11.65;4.20;;;;;;;5.09;34.34;101795.13;4985716;28;99307;-79
2021/03/09 03:37:31;;;;;;;11.38;4.22;;;;;;;5.27;34.27;101796.91;4968137;28;96827;-80
2021/03/09 03:39:58;;;;;;;8.48;4.15;;;;;;;5.24;33.92;101796.03;4970543;28;96899;-80
2021/03/09 03:42:24;;;;;;;11.45;3.60;;;;;;;5.26;33.54;101799.50;4970501;28;98907;-80
2021/03/09 03:44:50;;;;;;;12.65;4.65;;;;;;;5.31;33.75;101792.56;4969576;28;99192;-80
2021/03/09 03:47:16;;;;;;;;;;;;;;;5.24;33.49;101791.66;4973285;28;96857;-80
2021/03/09 03:49:42;;;;;;;13.65;4.45;;;;;;;4.98;33.73;101794.22;4969154;28;96737;-80
2021/03/09 03:52:17;;;;;;;10.65;4.35;;;;;;;4.95;34.13;101794.19;4963665;28;97877;-79
2021/03/09 03:54:49;;;;;;;15.03;5.27;;;;;;;5.08;34.12;101793.34;4959911;28;98969;-80
2021/03/09 03:57:21;;;;;;;11.25;3.92;;;;;;;5.08;34.12;101790.75;4960471;28;98738;-80
2021/03/09 03:59:52;;;;;;;12.30;4.35;;;;;;;4.99;34.04;101782.84;4962905;28;98258;-80
2021/03/09 04:02:20;;;;;;;8.93;4.03;;;;;;;4.97;34.39;101788.94;4967918;28;99040;-79
2021/03/09 04:04:48;;;;;;;11.27;4.63;;;;;;;5.11;34.04;101782.03;4974079;28;97756;-79
2021/03/09 04:07:20;;;;;;;8.77;3.70;;;;;;;5.08;34.05;101785.50;4966811;28;97344;-79
2021/03/09 04:09:46;;;;;;;10.60;4.25;;;;;;;5.15;33.84;101783.78;4965451;28;96842;-81
2021/03/09 04:12:14;;;;;;;9.30;4.22;;;;;;;5.12;34.42;101771.53;4966524;28;99294;-80
2021/03/09 04:14:42;;;;;;;13.02;4.45;;;;;;;4.98;34.54;101773.25;4964851;28;98863;-80
2021/03/09 04:17:08;;;;;;;17.67;4.55;;;;;;;5.19;34.65;101767.19;4965351;28;96901;-81
2021/03/09 04:19:38;;;;;;;10.73;4.07;;;;;;;5.14;33.99;101766.28;4974272;28;97543;-81
2021/03/09 04:22:04;;;;;;;12.07;3.75;;;;;;;5.35;33.82;101768.09;4977278;28;97623;-80
2021/03/09 04:24:31;;;;;;;11.13;3.97;;;;;;;5.01;34.68;101770.63;4973905;28;99418;-81
2021/03/09 04:26:58;;;;;;;14.70;4.57;;;;;;;4.87;34.62;101777.56;4976080;28;97409;-82
2021/03/09 04:29:24;;;;;;;17.45;4.65;;;;;;;4.87;34.32;101772.31;4977105;28;96844;-81
2021/03/09 04:31:51;;;;;;;11.43;4.47;;;;;;;5.28;34.12;101766.34;4967453;28;98913;-82
2021/03/09 04:34:17;;;;;;;9.55;4.10;;;;;;;5.25;34.04;101758.47;4974520;28;99294;-81
2021/03/09 04:36:44;;;;;;;12.07;4.80;;;;;;;5.10;33.64;101765.44;4965585;28;98330;-80
2021/03/09 04:39:11;;;;;;;11.65;3.95;;;;;;;4.95;34.55;101765.38;4972722;28;96690;-81
2021/03/09 04:41:37;;;;;;;13.45;3.92;;;;;;;4.94;34.38;101752.25;4972880;28;99407;-81
2021/03/09 04:44:04;;;;;;;10.98;4.30;;;;;;;5.02;34.18;101753.16;4973260;28;98972;-81
2021/03/09 04:46:31;;;;;;;11.65;4.28;;;;;;;5.06;33.83;101758.41;4970718;28;96758;-81
2021/03/09 04:48:59;;;;;;;13.52;4.20;;;;;;;4.96;33.77;101756.66;4970062;28;97537;-82
2021/03/09 04:51:25;;;;;;;9.57;4.05;;;;;;;5.02;34.29;101761.03;4973643;28;97748;-80
2021/03/09 04:53:53;;;;;;;10.52;3.90;;;;;;;5.30;34.20;101756.75;4971526;28;98801;-81
2021/03/09 04:56:18;;;;;;;10.80;3.80;;;;;;;5.01;33.74;101751.41;4968762;28;97547;-81
2021/03/09 04:58:44;;;;;;;;;;;;;;;4.90;33.86;101750.50;4968206;28;96891;-81
2021/03/09 05:01:10;;;;;;;10.55;4.60;;;;;;;5.04;34.47;101757.56;4969153;28;98487;-80
2021/03/09 05:03:36;;;;;;;11.55;4.07;;;;;;;5.01;34.21;101757.53;4962183;28;99160;-80
2021/03/09 05:06:03;;;;;;;;;;;;;;;5.05;34.32;101751.44;4970942;28;98487;-80
2021/03/09 05:08:30;;;;;;;16.70;4.30;;;;;;;5.03;33.97;101750.56;4974026;28;96942;-80
2021/03/09 05:10:56;;;;;;;12.57;3.80;;;;;;;5.05;33.66;101748.81;4970858;28;98754;-80
2021/03/09 05:13:23;;;;;;;13.55;4.05;;;;;;;5.19;33.78;101740.97;4975153;28;101251;-81
2021/03/09 05:15:49;;;;;;;16.23;4.50;;;;;;;5.18;33.65;101745.38;4992322;28;96579;-80
2021/03/09 05:18:16;;;;;;;11.95;4.40;;;;;;;5.21;33.95;101749.72;4989255;28;97876;-80
2021/03/09 05:20:42;;;;;;;12.50;4.38;;;;;;;5.06;33.83;101749.66;4987497;28;97838;-77
2021/03/09 05:23:09;;;;;;;16.60;4.00;;;;;;;5.27;33.73;101748.84;4994673;28;99997;-80
2021/03/09 05:25:35;;;;;;;11.93;4.38;;;;;;;5.03;34.00;101753.19;4987495;28;96792;-79
2021/03/09 05:28:02;;;;;;;12.27;4.65;;;;;;;5.04;34.25;101757.56;4984725;28;96518;-79
2021/03/09 05:30:29;;;;;;;14.35;4.43;;;;;;;5.01;34.11;101748.78;4985828;28;98046;-79
2021/03/09 05:32:57;;;;;;;12.30;4.30;;;;;;;5.04;34.14;101752.31;4987658;28;96794;-79
2021/03/09 05:35:23;;;;;;;15.35;4.65;;;;;;;4.97;34.06;101754.91;4973088;28;96580;-80
2021/03/09 05:37:49;;;;;;;21.55;5.05;;;;;;;4.64;34.57;101759.13;4978716;28;96844;-79
2021/03/09 05:40:17;;;;;;;11.52;4.40;;;;;;;4.96;34.14;101754.03;4988151;28;97842;-80
2021/03/09 05:42:47;;;;;;;14.95;4.63;;;;;;;4.85;34.39;101755.75;4990244;28;96583;-79
2021/03/09 05:45:13;;;;;;;13.77;5.10;;;;;;;4.99;33.92;101759.25;4983033;28;96575;-81
2021/03/09 05:47:39;;;;;;;9.07;3.92;;;;;;;5.22;33.78;101751.47;4980926;28;97214;-80
2021/03/09 05:50:06;;;;;;;14.30;5.28;;;;;;;4.99;34.00;101759.25;4972009;28;98857;-80
2021/03/09 05:52:35;;;;;;;12.38;5.03;;;;;;;5.04;34.20;101751.44;4972732;28;100254;-78
2021/03/09 05:55:01;;;;;;;14.40;4.13;;;;;;;4.72;34.70;101746.97;4977989;28;96715;-81
2021/03/09 05:57:34;;;;;;;13.70;4.82;;;;;;;4.82;34.84;101746.13;4972736;28;98642;-80
2021/03/09 06:00:00;;;;;;;17.25;4.78;;;;;;;4.81;34.81;101744.34;4977035;28;100474;-82
2021/03/09 06:02:27;;;;;;;16.02;5.50;;;;;;;4.97;34.87;101747.91;4961117;28;101125;-80
2021/03/09 06:04:54;;;;;;;11.95;5.22;;;;;;;5.09;34.44;101744.47;4972740;28;97497;-80
2021/03/09 06:07:21;;;;;;;13.55;4.85;;;;;;;5.07;34.54;101744.44;4971350;28;96994;-82
2021/03/09 06:09:47;;;;;;;13.80;5.03;;;;;;;4.79;35.05;101750.47;4977249;28;97591;-80
2021/03/09 06:12:16;;;;;;;12.55;4.90;;;;;;;5.07;34.10;101747.06;4960126;28;101788;-81
2021/03/09 06:14:45;;;;;;;14.27;5.07;;;;;;;4.93;35.01;101750.50;4976832;28;96846;-79
2021/03/09 06:17:13;;;;;;;15.90;5.72;;;;;;;4.89;34.91;101740.91;4975304;28;96835;-81
2021/03/09 06:19:44;;;;;;;11.73;4.65;;;;;;;4.96;34.99;101751.41;4970902;28;98160;-80
2021/03/09 06:22:17;;;;;;;17.02;6.15;;;;;;;5.43;34.65;101746.28;4976031;28;99384;-80
2021/03/09 06:24:47;;;;;;;11.65;4.47;;;;;;;5.08;34.78;101746.19;4975116;28;97838;-79
2021/03/09 06:27:25;;;;;;;17.75;5.80;;;;;;;5.19;34.93;101744.47;4964447;28;97652;-81
2021/03/09 06:29:52;;;;;;;14.80;5.18;;;;;;;5.28;34.15;101751.50;4975534;28;99369;-80
2021/03/09 06:32:18;;;;;;;15.75;5.13;;;;;;;5.73;33.82;101750.66;4966667;28;99083;-79
2021/03/09 06:34:44;;;;;;;16.48;5.38;;;;;;;5.53;33.98;101752.41;4975149;28;96788;-79
2021/03/09 06:37:11;;;;;;;;;;;;;;;5.36;34.15;101755.00;4976753;28;98647;-79
2021/03/09 06:39:51;;;;;;;;;;;;;;;5.45;34.08;101751.50;4984345;28;98940;-79
2021/03/09 06:42:30;;;;;;;17.98;5.65;;;;;;;5.59;33.76;101760.25;4982872;28;99205;-79
2021/03/09 06:45:00;;;;;;;18.83;6.22;;;;;;;5.46;33.68;101755.88;4983761;28;96589;-78
2021/03/09 06:47:34;;;;;;;15.25;6.15;;;;;;;5.43;34.74;101759.38;4983141;28;98622;-81
2021/03/09 06:50:00;;;;;;;18.63;5.28;;;;;;;5.74;33.90;101762.91;4983533;28;100519;-79
2021/03/09 06:52:27;;;;;;;;;;;;;;;5.90;33.78;101761.22;4981222;28;97806;-79
2021/03/09 06:54:54;;;;;;;17.30;5.43;;;;;;;5.94;33.16;101762.94;4988701;28;96913;-80
2021/03/09 06:57:21;;;;;;;17.58;6.25;;;;;;;5.98;33.12;101762.94;4981703;28;96787;-82
2021/03/09 06:59:49;;;;;;;21.05;6.30;;;;;;;5.90;33.51;101758.59;4977054;28;99260;-81
2021/03/09 07:02:17;;;;;;;12.68;5.47;;;;;;;5.83;33.64;101762.91;4983289;28;99236;-80
2021/03/09 07:04:44;;;;;;;14.07;6.00;;;;;;;6.05;33.35;101760.28;4972354;28;96899;-80
2021/03/09 07:07:12;;;;;;;18.48;5.65;;;;;;;6.03;33.38;101764.69;4972721;28;96838;-80
2021/03/09 07:09:38;;;;;;;18.88;6.15;;;;;;;6.40;33.07;101761.13;4972338;28;98925;-80
2021/03/09 07:12:09;;;;;;;17.25;6.13;;;;;;;6.51;32.76;101767.22;4979416;28;98849;-80
2021/03/09 07:14:39;;;;;;;14.82;6.13;;;;;;;6.11;33.18;101762.91;4989465;28;96509;-80
2021/03/09 07:17:08;;;;;;;14.75;6.22;;;;;;;6.14;33.17;101763.81;5001566;28;96766;-79
2021/03/09 07:19:37;;;;;;;19.02;6.43;;;;;;;6.42;32.99;101769.00;4990579;28;96971;-80
2021/03/09 07:22:05;;;;;;;14.65;6.53;;;;;;;6.40;32.78;101769.88;4986606;28;97756;-81
2021/03/09 07:24:32;;;;;;;16.35;7.00;;;;;;;6.61;32.35;101771.59;4984054;28;96815;-83
2021/03/09 07:27:03;;;;;;;24.77;6.57;;;;;;;6.57;32.85;101774.19;4986182;28;96621;-80
2021/03/09 07:29:36;;;;;;;26.58;7.22;;;;;;;6.64;32.36;101774.19;4983769;28;97983;-80
2021/03/09 07:32:08;;;;;;;19.02;6.30;;;;;;;6.52;32.39;101768.09;4981908;28;97942;-81
2021/03/09 07:34:35;;;;;;;19.35;6.65;;;;;;;6.53;32.61;101768.09;4979571;28;97042;-81
2021/03/09 07:37:02;;;;;;;20.48;6.68;;;;;;;6.48;32.39;101769.00;4979844;28;96909;-81
2021/03/09 07:39:29;;;;;;;16.98;6.43;;;;;;;6.82;31.99;101768.00;4976957;28;101084;-81
2021/03/09 07:41:55;;;;;;;15.80;6.45;;;;;;;6.78;32.33;101767.13;4972105;28;98313;-80
2021/03/09 07:44:22;;;;;;;;;;;;;;;6.77;32.62;101768.00;4976091;28;97141;-81
2021/03/09 07:46:48;;;;;;;16.10;6.90;;;;;;;6.69;32.73;101775.06;4975924;28;96821;-82
2021/03/09 07:49:15;;;;;;;17.98;7.05;;;;;;;6.70;32.05;101768.91;4968269;28;97755;-81
2021/03/09 07:52:08;;;;;;;20.35;5.88;;;;;;;7.17;31.62;101770.47;4974199;28;97610;-81
2021/03/09 07:54:34;;;;;;;23.08;7.00;;;;;;;7.40;31.26;101765.97;4969719;28;97724;-82
2021/03/09 07:57:20;;;;;;;;;;;;;;;7.68;30.84;101760.50;4977739;28;97012;-81
2021/03/09 07:59:57;;;;;;;20.48;6.97;;;;;;;7.41;31.21;101761.56;4976418;28;99043;-81
2021/03/09 08:02:47;;;;;;;22.65;6.60;;;;;;;7.68;30.50;101747.34;4980503;28;96596;-81
2021/03/09 08:05:16;;;;;;;21.10;6.82;;;;;;;7.96;30.13;101748.84;4983825;28;96716;-82
2021/03/09 08:07:51;;;;;;;23.30;6.60;;;;;;;7.75;30.12;101752.53;4984594;28;96932;-80
2021/03/09 08:10:46;;;;;;;19.27;7.63;;;;;;;8.15;29.96;101742.53;4983179;28;98721;-79
2021/03/09 08:13:29;;;;;;;18.38;8.00;;;;;;;8.53;29.36;101738.69;4981633;28;98015;-80
2021/03/09 08:16:31;;;;;;;17.60;6.95;;;;;;;8.51;29.63;101746.59;4982967;28;97293;-79
2021/03/09 08:18:59;;;;;;;20.27;7.32;;;;;;;8.52;29.45;101744.81;4986868;28;98866;-78
2021/03/09 08:21:50;;;;;;;18.30;6.30;;;;;;;7.73;30.23;101738.53;4977868;28;98012;-80
2021/03/09 08:24:18;;;;;;;24.65;7.43;;;;;;;8.36;29.64;101736.22;4979723;28;97733;-78
2021/03/09 08:26:51;;;;;;;22.20;8.05;;;;;;;8.29;29.70;101738.00;4980542;28;98093;-81
2021/03/09 08:29:34;;;;;;;18.50;7.00;;;;;;;8.06;30.01;101734.75;4982174;28;97869;-81
2021/03/09 08:32:37;;;;;;;40.80;8.52;;;;;;;8.45;29.93;101735.25;4989078;28;100182;-79
2021/03/09 08:35:38;;;;;;;26.08;6.97;;;;;;;7.49;31.00;101731.69;4982074;28;98025;-82
2021/03/09 08:38:12;;;;;;;17.52;6.72;;;;;;;7.95;30.52;101733.94;4995234;28;96598;-80
2021/03/09 08:41:01;;;;;;;19.33;7.00;;;;;;;8.02;30.09;101730.38;4981023;28;97484;-80
2021/03/09 08:43:27;;;;;;;20.60;7.20;;;;;;;8.42;29.85;101725.59;4977001;28;98966;-80
2021/03/09 08:45:57;;;;;;;14.43;8.27;;;;;;;8.46;29.46;101723.81;4976104;28;99569;-80
2021/03/09 08:48:42;;;;;;;17.83;7.50;;;;;;;8.66;29.34;101724.47;4975076;28;97413;-79
2021/03/09 08:51:26;;;;;;;16.40;7.25;;;;;;;8.52;29.36;101726.38;4976992;28;96887;-79
2021/03/09 08:53:52;;;;;;;14.73;7.05;;;;;;;8.81;29.01;101721.63;4963143;28;98608;-79
2021/03/09 08:56:19;;;;;;;21.10;8.00;;;;;;;9.07;28.71;101716.88;4984814;28;101858;-80
2021/03/09 08:58:45;;;;;;;22.67;7.32;;;;;;;8.99;28.78;101716.09;4982887;28;96737;-81
2021/03/09 09:01:22;;;;;;;;;;;;;;;9.58;27.94;101714.38;4979093;28;96818;-81
2021/03/09 09:03:48;;;;;;;22.17;7.05;;;;;;;8.77;28.87;101706.75;4977717;28;97372;-80
2021/03/09 09:06:13;;;;;;;;;;;;;;;8.99;28.43;101708.19;4983774;28;99251;-80
2021/03/09 09:08:42;;;;;;;20.83;7.15;;;;;;;9.19;28.32;101714.06;4982330;28;97029;-80
2021/03/09 09:11:08;;;;;;;17.52;7.28;;;;;;;9.29;28.53;101706.03;4981862;28;97027;-82
2021/03/09 09:13:36;;;;;;;;;;;;;;;9.62;28.00;101707.25;4982594;28;100692;-79
2021/03/09 09:16:22;;;;;;;17.58;7.68;;;;;;;9.38;27.94;101705.91;4987883;28;100679;-81
2021/03/09 09:18:48;;;;;;;18.05;7.13;;;;;;;9.94;27.33;101704.94;4978074;28;97489;-79
2021/03/09 09:21:14;;;;;;;21.67;7.00;;;;;;;9.94;27.33;101700.53;4980557;28;96979;-79
2021/03/09 09:23:40;;;;;;;16.65;6.78;;;;;;;10.00;26.94;101697.78;4974957;28;98885;-81
2021/03/09 09:26:13;;;;;;;13.50;6.03;;;;;;;10.05;26.94;101700.34;4977144;28;97681;-80
2021/03/09 09:28:41;;;;;;;17.17;6.95;;;;;;;10.60;26.28;101694.91;4980621;28;98023;-81
2021/03/09 09:31:11;;;;;;;23.25;6.28;;;;;;;10.43;26.31;101691.75;4976999;28;97095;-81
2021/03/09 09:33:37;;;;;;;20.30;7.10;;;;;;;10.39;26.60;101693.56;4969725;28;98055;-81
2021/03/09 09:36:04;;;;;;;18.08;6.03;;;;;;;10.47;25.36;101689.88;4976172;28;99417;-82
2021/03/09 09:38:31;;;;;;;16.05;5.65;;;;;;;10.48;25.41;101695.16;4973974;28;97364;-81
2021/03/09 09:40:58;;;;;;;15.48;5.38;;;;;;;10.42;25.51;101686.47;4974374;28;97644;-81
2021/03/09 09:43:26;;;;;;;15.85;5.75;;;;;;;10.74;25.08;101681.41;4976687;28;97766;-82
2021/03/09 09:45:56;;;;;;;15.93;4.85;;;;;;;10.53;24.83;101693.28;4983148;28;102180;-83
2021/03/09 09:48:24;;;;;;;19.77;4.75;;;;;;;10.43;24.69;101691.75;4985379;28;96626;-81
2021/03/09 09:50:52;;;;;;;15.95;4.93;;;;;;;10.82;23.86;101689.16;4992878;28;95998;-80
2021/03/09 09:53:29;;;;;;;13.15;5.18;;;;;;;10.73;24.25;101691.09;4988140;28;97842;-80
2021/03/09 09:55:55;;;;;;;12.52;5.38;;;;;;;10.42;24.65;101687.34;4980824;28;97774;-81
2021/03/09 09:58:22;;;;;;;8.95;4.00;;;;;;;10.87;23.83;101688.16;4970509;28;99003;-79
2021/03/09 10:00:56;;;;;;;10.52;4.50;;;;;;;10.54;24.39;101686.22;4974826;28;96893;-79
2021/03/09 10:03:22;;;;;;;10.05;4.75;;;;;;;11.08;23.86;101678.88;4969925;28;99699;-80
2021/03/09 10:05:48;;;;;;;9.88;4.30;;;;;;;10.88;24.39;101686.38;4978779;28;97854;-81
2021/03/09 10:08:32;;;;;;;;;;;;;;;11.17;23.86;101678.66;4976542;28;98325;-79
2021/03/09 10:11:01;;;;;;;17.02;4.60;;;;;;;11.48;23.73;101681.47;4971106;28;98601;-81
2021/03/09 10:13:27;;;;;;;18.45;5.13;;;;;;;11.07;23.82;101679.78;4976736;28;101213;-81
2021/03/09 10:15:54;;;;;;;;;;;;;;;11.14;23.88;101676.97;4978929;28;99227;-82
2021/03/09 10:18:28;;;;;;;18.10;4.90;;;;;;;11.31;23.48;101679.19;4985371;28;96697;-81
2021/03/09 10:21:13;;;;;;;10.82;4.35;;;;;;;10.71;23.86;101669.09;4987590;28;98060;-81
2021/03/09 10:23:54;;;;;;;11.57;5.22;;;;;;;10.88;23.91;101674.03;4985127;28;99973;-81
2021/03/09 10:26:34;;;;;;;8.52;3.90;;;;;;;11.30;23.39;101672.16;4990829;28;96943;-81
2021/03/09 10:29:03;;;;;;;16.88;4.57;;;;;;;10.84;23.27;101660.91;4984391;28;96998;-82
2021/03/09 10:31:40;;;;;;;13.63;3.67;;;;;;;10.81;23.21;101671.56;4987543;28;97001;-82
2021/03/09 10:34:07;;;;;;;12.02;3.92;;;;;;;11.42;22.69;101653.34;4985974;28;101720;-81
2021/03/09 10:36:50;;;;;;;10.98;3.90;;;;;;;11.53;22.59;101663.69;4985688;28;98029;-80
2021/03/09 10:39:16;;;;;;;9.80;3.40;;;;;;;11.50;22.49;101664.63;4973124;28;97808;-82
2021/03/09 10:41:43;;;;;;;12.68;4.20;;;;;;;11.71;22.66;101660.56;4978951;28;96834;-82
2021/03/09 10:44:28;;;;;;;8.82;3.60;;;;;;;12.10;22.19;101661.31;4978270;28;98681;-82
2021/03/09 10:47:00;;;;;;;14.13;4.90;;;;;;;12.04;22.33;101660.63;4977276;28;101089;-82
2021/03/09 10:49:26;;;;;;;10.60;3.97;;;;;;;12.00;22.83;101653.69;4977540;28;97619;-82
2021/03/09 10:52:00;;;;;;;7.03;3.30;;;;;;;11.84;22.22;101655.84;4979465;28;96835;-83
2021/03/09 10:54:26;;;;;;;9.80;3.42;;;;;;;12.14;21.79;101649.72;4979139;28;99549;-82
2021/03/09 10:56:52;;;;;;;;;;;;;;;12.02;21.66;101647.41;4979401;28;97928;-82
2021/03/09 10:59:18;;;;;;;8.65;3.25;;;;;;;11.88;22.34;101657.53;4970371;28;97878;-81
2021/03/09 11:01:44;;;;;;;11.05;4.03;;;;;;;12.02;21.47;101643.88;4977340;28;97174;-80
2021/03/09 11:04:11;;;;;;;11.15;2.92;;;;;;;11.65;22.08;101644.84;4974833;28;99939;-79
2021/03/09 11:06:38;;;;;;;10.38;3.58;;;;;;;12.02;21.81;101651.84;4976871;28;98991;-82
2021/03/09 11:09:06;;;;;;;9.02;2.83;;;;;;;11.41;21.89;101648.13;4977365;28;97187;-81
2021/03/09 11:11:33;;;;;;;6.45;2.38;;;;;;;11.50;21.95;101647.88;4973686;28;96836;-85
2021/03/09 11:13:59;;;;;;;8.18;2.75;;;;;;;11.31;22.77;101636.00;4979380;28;99086;-82
2021/03/09 11:16:28;;;;;;;;;;;;;;;11.51;22.28;101646.97;4975044;28;99657;-82
2021/03/09 11:18:54;;;;;;;12.02;2.75;;;;;;;11.52;22.50;101640.75;4974716;28;97067;-84
2021/03/09 11:21:22;;;;;;;5.57;2.80;;;;;;;11.94;21.91;101630.88;4976696;28;96876;-81
2021/03/09 11:23:52;;;;;;;13.25;2.85;;;;;;;11.27;22.26;101639.63;4976564;28;99472;-83
2021/03/09 11:26:19;;;;;;;4.93;2.58;;;;;;;11.39;22.21;101626.09;4980120;28;97595;-83
2021/03/09 11:28:46;;;;;;;10.52;1.67;;;;;;;11.47;21.14;101632.94;4979662;28;97985;-83
2021/03/09 11:31:14;;;;;;;8.15;2.50;;;;;;;11.67;21.88;101629.78;4987641;28;96863;-82
2021/03/09 11:33:41;;;;;;;12.43;3.30;;;;;;;11.43;22.57;101640.97;4977205;28;99058;-85
2021/03/09 11:36:07;;;;;;;;;;;;;;;11.30;21.77;101637.78;4969782;28;99335;-84
2021/03/09 11:38:34;;;;;;;11.83;3.20;;;;;;;11.23;21.84;101624.72;4973021;28;97214;-79
2021/03/09 11:41:06;;;;;;;6.93;3.10;;;;;;;11.57;21.90;101629.16;4972892;28;96830;-80